createdAt,value
2023-03-17T00:00:42.807Z,4.80
2023-03-17T00:03:26.462Z,5.10
2023-03-17T00:05:54.927Z,5.40
2023-03-17T00:08:32.563Z,5.30
2023-03-17T00:11:00.743Z,6.30
2023-03-17T00:13:31.315Z,5.40
2023-03-17T00:16:02.429Z,5.40
2023-03-17T00:18:31.937Z,5.10
2023-03-17T00:21:00.199Z,5.40
2023-03-17T00:23:28.464Z,5.50
2023-03-17T00:25:57.486Z,5.00
2023-03-17T00:28:27.382Z,5.60
2023-03-17T00:30:58.548Z,5.50
2023-03-17T00:33:28.999Z,4.70
2023-03-17T00:35:57.740Z,5.50
2023-03-17T00:38:25.968Z,5.90
2023-03-17T00:40:54.961Z,5.50
2023-03-17T00:43:23.127Z,5.20
2023-03-17T00:45:51.313Z,5.50
2023-03-17T00:48:21.526Z,4.50
2023-03-17T00:50:50.839Z,5.30
2023-03-17T00:53:21.666Z,5.00
2023-03-17T00:55:50.110Z,5.70
2023-03-17T00:58:29.000Z,5.30
2023-03-17T01:00:57.584Z,4.80
2023-03-17T01:03:26.689Z,5.30
2023-03-17T01:05:57.966Z,5.30
2023-03-17T01:08:26.361Z,5.90
2023-03-17T01:10:54.872Z,5.20
2023-03-17T01:13:24.050Z,5.50
2023-03-17T01:15:53.112Z,5.30
2023-03-17T01:18:23.034Z,5.40
2023-03-17T01:20:51.959Z,5.70
2023-03-17T01:23:20.076Z,5.30
2023-03-17T01:25:49.286Z,5.50
2023-03-17T01:28:19.290Z,5.00
2023-03-17T01:30:47.692Z,5.30
2023-03-17T01:33:16.028Z,4.50
2023-03-17T01:35:45.962Z,5.20
2023-03-17T01:38:15.165Z,5.50
2023-03-17T01:40:46.991Z,5.20
2023-03-17T01:43:22.697Z,5.10
2023-03-17T01:46:16.220Z,5.10
2023-03-17T01:48:46.696Z,5.40
2023-03-17T01:51:45.029Z,5.40
2023-03-17T01:54:23.382Z,5.20
2023-03-17T01:56:53.858Z,5.30
2023-03-17T01:59:28.832Z,5.10
2023-03-17T02:02:03.041Z,5.50
2023-03-17T02:04:34.200Z,5.20
2023-03-17T02:07:05.224Z,5.80
2023-03-17T02:09:34.495Z,4.70
2023-03-17T02:12:05.431Z,4.80
2023-03-17T02:17:01.711Z,2.10
2023-03-17T02:19:30.994Z,5.30
2023-03-17T02:22:00.633Z,5.10
2023-03-17T02:24:39.909Z,5.30
2023-03-17T02:27:21.472Z,4.60
2023-03-17T02:29:51.030Z,5.30
2023-03-17T02:32:19.746Z,4.50
2023-03-17T02:34:48.860Z,4.80
2023-03-17T02:37:18.876Z,4.50
2023-03-17T02:39:47.464Z,4.90
2023-03-17T02:42:15.564Z,4.30
2023-03-17T02:44:43.877Z,4.70
2023-03-17T02:47:12.954Z,4.50
2023-03-17T02:49:42.804Z,4.40
2023-03-17T02:52:12.190Z,4.80
2023-03-17T02:54:40.541Z,4.80
2023-03-17T02:57:09.008Z,4.50
2023-03-17T02:59:37.378Z,4.60
2023-03-17T03:02:05.781Z,4.10
2023-03-17T03:04:33.972Z,4.30
2023-03-17T03:07:02.910Z,4.80
2023-03-17T03:09:30.990Z,4.10
2023-03-17T03:11:59.128Z,4.40
2023-03-17T03:14:27.282Z,4.30
2023-03-17T03:16:55.316Z,5.20
2023-03-17T03:19:24.457Z,4.90
2023-03-17T03:21:52.492Z,4.40
2023-03-17T03:24:20.569Z,4.20
2023-03-17T03:26:48.576Z,4.40
2023-03-17T03:29:16.962Z,5.00
2023-03-17T03:31:45.101Z,4.40
2023-03-17T03:34:13.131Z,5.00
2023-03-17T03:36:41.454Z,5.30
2023-03-17T03:39:09.823Z,5.00
2023-03-17T03:41:38.197Z,4.40
2023-03-17T03:44:06.576Z,4.40
2023-03-17T03:46:34.639Z,4.60
2023-03-17T03:49:02.826Z,1.80
2023-03-17T03:51:31.096Z,5.50
2023-03-17T03:53:59.228Z,4.70
2023-03-17T03:56:27.300Z,5.00
2023-03-17T03:58:56.648Z,2.90
2023-03-17T04:01:24.899Z,4.70
2023-03-17T04:03:53.310Z,5.30
2023-03-17T04:06:21.662Z,1.90
2023-03-17T04:08:49.927Z,4.60
2023-03-17T04:11:18.264Z,5.30
2023-03-17T04:13:46.399Z,4.90
2023-03-17T04:16:14.638Z,2.10
2023-03-17T04:18:42.708Z,2.80
2023-03-17T04:21:11.987Z,4.80
2023-03-17T04:23:40.040Z,4.40
2023-03-17T04:26:09.059Z,5.10
2023-03-17T04:28:37.097Z,5.00
2023-03-17T04:31:05.358Z,4.40
2023-03-17T04:33:33.667Z,1.90
2023-03-17T04:36:04.198Z,4.10
2023-03-17T04:38:32.487Z,4.60
2023-03-17T04:41:00.685Z,4.30
2023-03-17T04:43:28.788Z,4.70
2023-03-17T04:45:56.992Z,2.90
2023-03-17T04:48:25.111Z,2.10
2023-03-17T04:50:53.460Z,4.00
2023-03-17T04:53:22.497Z,3.80
2023-03-17T04:55:51.693Z,1.60
2023-03-17T04:58:30.390Z,4.50
2023-03-17T05:00:59.336Z,4.20
2023-03-17T05:03:28.697Z,2.50
2023-03-17T05:05:58.153Z,2.20
2023-03-17T05:08:28.508Z,4.60
2023-03-17T05:10:57.706Z,4.70
2023-03-17T05:13:26.643Z,4.50
2023-03-17T05:15:55.788Z,2.10
2023-03-17T05:18:25.636Z,4.50
2023-03-17T05:20:54.453Z,1.80
2023-03-17T05:23:23.295Z,4.50
2023-03-17T05:25:51.738Z,5.10
2023-03-17T05:28:21.031Z,2.60
2023-03-17T05:30:49.577Z,5.00
2023-03-17T05:33:18.041Z,4.80
2023-03-17T05:35:46.661Z,5.30
2023-03-17T05:38:16.178Z,2.40
2023-03-17T05:40:45.762Z,3.10
2023-03-17T05:43:14.127Z,4.80
2023-03-17T05:45:42.450Z,5.30
2023-03-17T05:48:12.478Z,2.00
2023-03-17T05:50:41.848Z,5.30
2023-03-17T05:53:10.778Z,4.60
2023-03-17T05:55:38.840Z,3.00
2023-03-17T05:58:08.012Z,2.30
2023-03-17T06:00:36.612Z,5.00
2023-03-17T06:03:04.880Z,2.10
2023-03-17T06:05:33.089Z,5.30
2023-03-17T06:08:01.262Z,5.10
2023-03-17T06:10:29.694Z,5.90
2023-03-17T06:12:59.043Z,2.40
2023-03-17T06:15:27.151Z,5.00
2023-03-17T06:17:55.298Z,5.20
2023-03-17T06:20:23.373Z,5.20
2023-03-17T06:23:03.267Z,5.30
2023-03-17T06:25:34.671Z,5.20
2023-03-17T06:28:04.214Z,5.60
2023-03-17T06:30:33.976Z,5.30
2023-03-17T06:33:03.686Z,5.90
2023-03-17T06:35:32.824Z,3.80
2023-03-17T06:38:01.203Z,6.20
2023-03-17T06:40:29.813Z,5.90
2023-03-17T06:42:58.526Z,6.10
2023-03-17T06:45:26.847Z,6.20
2023-03-17T06:47:55.246Z,7.10
2023-03-17T06:50:23.346Z,6.50
2023-03-17T06:52:51.589Z,6.90
2023-03-17T06:55:19.811Z,6.30
2023-03-17T06:57:49.842Z,6.50
2023-03-17T07:00:20.074Z,6.90
2023-03-17T07:02:49.729Z,6.60
2023-03-17T07:05:18.103Z,6.90
2023-03-17T07:07:46.454Z,7.10
2023-03-17T07:10:16.000Z,7.30
2023-03-17T07:12:44.875Z,7.20
2023-03-17T07:15:13.005Z,7.30
2023-03-17T07:17:42.137Z,6.60
2023-03-17T07:20:11.931Z,7.20
2023-03-17T07:22:41.109Z,6.00
2023-03-17T07:25:09.998Z,6.50
2023-03-17T07:27:38.990Z,6.20
2023-03-17T07:30:07.823Z,7.00
2023-03-17T07:32:36.461Z,6.90
2023-03-17T07:35:05.543Z,6.00
2023-03-17T07:37:33.928Z,6.10
2023-03-17T07:40:02.105Z,4.70
2023-03-17T07:42:30.278Z,4.90
2023-03-17T07:44:58.494Z,5.30
2023-03-17T07:47:27.264Z,4.90
2023-03-17T07:49:55.399Z,4.40
2023-03-17T07:52:23.451Z,3.70
2023-03-17T07:54:52.256Z,3.80
2023-03-17T07:57:21.048Z,3.70
2023-03-17T07:59:49.698Z,4.00
2023-03-17T08:02:18.811Z,3.80
2023-03-17T08:04:47.223Z,3.60
2023-03-17T08:07:15.744Z,3.20
2023-03-17T08:09:43.819Z,3.10
2023-03-17T08:12:12.075Z,3.70
2023-03-17T08:14:41.547Z,3.80
2023-03-17T08:17:10.645Z,3.60
2023-03-17T08:19:38.803Z,3.80
2023-03-17T08:22:07.364Z,2.90
2023-03-17T08:24:35.702Z,3.50
2023-03-17T08:27:04.143Z,3.10
2023-03-17T08:29:32.257Z,3.30
2023-03-17T08:32:00.459Z,3.40
2023-03-17T08:34:28.598Z,3.30
2023-03-17T08:36:56.848Z,3.50
2023-03-17T08:39:25.474Z,3.20
2023-03-17T08:41:53.676Z,3.30
2023-03-17T08:44:22.005Z,3.00
2023-03-17T08:46:51.621Z,2.70
2023-03-17T08:49:19.759Z,3.10
2023-03-17T08:51:47.895Z,3.30
2023-03-17T08:54:16.172Z,2.70
2023-03-17T08:56:44.309Z,2.40
2023-03-17T08:59:12.645Z,2.20
2023-03-17T09:01:42.150Z,2.10
2023-03-17T09:04:11.217Z,2.40
2023-03-17T09:06:42.352Z,2.20
2023-03-17T09:09:17.656Z,2.20
2023-03-17T09:11:46.012Z,2.30
2023-03-17T09:14:14.334Z,2.40
2023-03-17T09:16:42.472Z,2.20
2023-03-17T09:19:10.499Z,2.00
2023-03-17T09:21:38.523Z,1.90
2023-03-17T09:24:07.362Z,2.10
2023-03-17T09:26:35.758Z,2.10
2023-03-17T09:29:04.990Z,2.00
2023-03-17T09:31:33.610Z,2.50
2023-03-17T09:34:01.740Z,2.00
2023-03-17T09:36:29.995Z,2.20
2023-03-17T09:38:58.173Z,2.10
2023-03-17T09:41:52.253Z,1.80
2023-03-17T09:44:26.366Z,1.80
2023-03-17T09:47:32.758Z,1.90
2023-03-17T09:50:09.116Z,1.80
2023-03-17T09:52:37.556Z,1.90
2023-03-17T09:55:08.812Z,2.20
2023-03-17T09:57:39.477Z,2.00
2023-03-17T10:00:18.078Z,2.00
2023-03-17T10:02:47.526Z,1.50
2023-03-17T10:05:34.989Z,1.50
2023-03-17T10:08:29.048Z,1.90
2023-03-17T10:11:24.835Z,1.80
2023-03-17T10:13:53.389Z,1.70
2023-03-17T10:16:28.464Z,1.90
2023-03-17T10:19:02.956Z,1.70
2023-03-17T10:21:37.285Z,1.70
2023-03-17T10:24:06.063Z,1.60
2023-03-17T10:26:42.270Z,2.20
2023-03-17T10:29:17.712Z,2.20
2023-03-17T10:31:45.858Z,1.80
2023-03-17T10:34:16.809Z,1.80
2023-03-17T10:36:51.609Z,1.90
2023-03-17T10:39:22.941Z,1.60
2023-03-17T10:42:09.231Z,1.60
2023-03-17T10:45:15.622Z,1.60
2023-03-17T10:47:49.118Z,1.70
2023-03-17T10:50:32.893Z,1.90
2023-03-17T10:53:07.877Z,1.50
2023-03-17T10:55:38.511Z,1.80
2023-03-17T11:00:38.670Z,1.90
2023-03-17T11:03:15.272Z,1.80
2023-03-17T11:05:55.954Z,1.80
2023-03-17T11:10:57.105Z,4.50
2023-03-17T11:13:34.140Z,1.90
2023-03-17T11:16:15.981Z,2.00
2023-03-17T11:18:44.992Z,2.00
2023-03-17T11:21:23.510Z,1.70
2023-03-17T11:24:16.961Z,1.70
2023-03-17T11:26:54.675Z,1.70
2023-03-17T11:30:14.951Z,1.60
2023-03-17T11:33:11.714Z,1.70
2023-03-17T11:36:18.805Z,1.40
2023-03-17T11:39:05.913Z,2.00
2023-03-17T11:42:12.358Z,1.50
2023-03-17T11:45:01.499Z,1.70
2023-03-17T11:47:32.531Z,1.50
2023-03-17T11:50:16.023Z,1.50
2023-03-17T11:53:00.338Z,1.60
2023-03-17T11:55:49.111Z,1.80
2023-03-17T11:58:44.818Z,1.40
2023-03-17T12:01:17.854Z,1.50
2023-03-17T12:04:09.494Z,1.60
2023-03-17T12:06:44.325Z,1.60
2023-03-17T12:09:30.862Z,1.40
2023-03-17T12:12:01.303Z,1.90
2023-03-17T12:14:33.852Z,1.70
2023-03-17T12:17:33.265Z,1.60
2023-03-17T12:20:14.942Z,1.60
2023-03-17T12:22:50.938Z,1.60
2023-03-17T12:25:27.929Z,1.50
2023-03-17T12:28:04.752Z,1.50
2023-03-17T12:30:45.623Z,1.50
2023-03-17T12:33:30.459Z,1.60
2023-03-17T12:35:59.781Z,1.80
2023-03-17T12:38:30.735Z,1.60
2023-03-17T12:41:17.543Z,2.20
2023-03-17T12:44:01.399Z,1.80
2023-03-17T12:46:29.608Z,1.80
2023-03-17T12:49:27.212Z,1.70
2023-03-17T12:51:55.296Z,1.70
2023-03-17T12:54:30.677Z,1.60
2023-03-17T12:57:14.128Z,1.60
2023-03-17T12:59:44.188Z,1.50
2023-03-17T13:02:34.842Z,1.80
2023-03-17T13:05:08.052Z,2.10
2023-03-17T13:07:49.130Z,1.60
2023-03-17T13:10:40.238Z,1.60
2023-03-17T13:13:33.377Z,1.50
2023-03-17T13:16:04.619Z,2.00
2023-03-17T13:18:35.645Z,1.90
2023-03-17T13:21:04.328Z,1.80
2023-03-17T13:24:07.984Z,1.80
2023-03-17T13:27:02.136Z,1.90
2023-03-17T13:29:33.011Z,2.00
2023-03-17T13:32:15.992Z,1.90
2023-03-17T13:34:53.929Z,1.80
2023-03-17T13:37:31.374Z,1.80
2023-03-17T13:40:10.739Z,1.80
2023-03-17T13:42:53.466Z,1.90
2023-03-17T13:45:38.669Z,1.90
2023-03-17T13:48:24.678Z,2.00
2023-03-17T13:51:20.840Z,1.80
2023-03-17T13:53:54.209Z,1.80
2023-03-17T13:56:36.372Z,1.70
2023-03-17T13:59:17.209Z,1.70
2023-03-17T14:02:02.885Z,1.70
2023-03-17T14:04:50.499Z,2.40
2023-03-17T14:07:23.139Z,2.50
2023-03-17T14:09:55.967Z,2.00
2023-03-17T14:12:51.084Z,2.20
2023-03-17T14:15:35.100Z,2.00
2023-03-17T14:18:11.196Z,1.60
2023-03-17T14:20:39.437Z,2.40
2023-03-17T14:23:09.626Z,1.90
2023-03-17T14:25:39.976Z,1.90
2023-03-17T14:28:14.000Z,2.20
2023-03-17T14:30:52.154Z,1.90
2023-03-17T14:33:26.708Z,1.90
2023-03-17T14:35:59.065Z,1.70
2023-03-17T14:38:32.894Z,1.70
2023-03-17T14:41:04.451Z,1.80
2023-03-17T14:43:34.563Z,1.90
2023-03-17T14:46:07.751Z,2.30
2023-03-17T14:48:38.122Z,2.00
2023-03-17T14:54:00.248Z,1.90
2023-03-17T14:56:41.109Z,1.70
2023-03-17T14:59:26.699Z,1.70
2023-03-17T15:01:57.629Z,1.90
2023-03-17T15:04:33.885Z,2.10
2023-03-17T15:07:05.403Z,2.70
2023-03-17T15:09:39.960Z,3.40
2023-03-17T15:12:14.110Z,2.20
2023-03-17T15:14:42.711Z,1.60
2023-03-17T15:17:28.779Z,2.00
2023-03-17T15:20:02.246Z,2.00
2023-03-17T15:22:36.432Z,2.10
2023-03-17T15:25:17.477Z,2.70
2023-03-17T15:27:46.873Z,1.90
2023-03-17T15:30:16.920Z,1.80
2023-03-17T15:32:50.972Z,2.00
2023-03-17T15:35:19.871Z,4.00
2023-03-17T15:37:47.983Z,1.90
2023-03-17T15:40:16.108Z,2.10
2023-03-17T15:42:45.582Z,2.20
2023-03-17T15:45:17.749Z,2.40
2023-03-17T15:47:47.428Z,2.50
2023-03-17T15:50:20.254Z,1.90
2023-03-17T15:52:48.339Z,3.20
2023-03-17T15:55:21.712Z,1.90
2023-03-17T15:57:55.179Z,2.10
2023-03-17T16:00:26.691Z,1.80
2023-03-17T16:03:00.160Z,2.20
2023-03-17T16:05:31.407Z,1.80
2023-03-17T16:07:59.617Z,2.00
2023-03-17T16:10:30.801Z,2.30
2023-03-17T16:12:59.689Z,2.00
2023-03-17T16:15:33.193Z,2.30
2023-03-17T16:18:04.410Z,2.40
2023-03-17T16:20:38.122Z,2.00
2023-03-17T16:23:15.105Z,2.20
2023-03-17T16:25:44.278Z,2.10
2023-03-17T16:28:26.961Z,2.90
2023-03-17T16:30:57.118Z,2.80
2023-03-17T16:33:36.186Z,2.60
2023-03-17T16:36:04.788Z,4.50
2023-03-17T16:38:34.212Z,3.00
2023-03-17T16:41:08.539Z,2.30
2023-03-17T16:43:38.328Z,3.20
2023-03-17T16:46:07.466Z,2.20
2023-03-17T16:48:35.909Z,2.10
2023-03-17T16:51:05.588Z,2.60
2023-03-17T16:53:33.811Z,2.50
2023-03-17T16:56:01.940Z,1.90
2023-03-17T16:58:34.114Z,2.30
2023-03-17T17:01:04.309Z,2.30
2023-03-17T17:03:32.373Z,2.30
2023-03-17T17:06:00.497Z,2.70
2023-03-17T17:08:28.539Z,1.90
2023-03-17T17:10:57.565Z,2.30
2023-03-17T17:13:25.843Z,2.20
2023-03-17T17:15:55.213Z,2.20
2023-03-17T17:18:24.725Z,2.60
2023-03-17T17:20:54.208Z,2.10
2023-03-17T17:23:25.950Z,2.70
2023-03-17T17:25:55.753Z,2.60
2023-03-17T17:28:24.773Z,2.90
2023-03-17T17:30:53.603Z,2.50
2023-03-17T17:33:22.056Z,2.50
2023-03-17T17:35:50.347Z,2.90
2023-03-17T17:38:18.393Z,3.20
2023-03-17T17:40:47.332Z,3.10
2023-03-17T17:43:18.300Z,4.00
2023-03-17T17:45:50.770Z,3.30
2023-03-17T17:48:22.829Z,3.10
2023-03-17T17:50:52.465Z,2.80
2023-03-17T17:53:20.868Z,3.30
2023-03-17T17:55:49.883Z,7.70
2023-03-17T17:58:22.315Z,9.60
2023-03-17T18:00:51.721Z,5.70
2023-03-17T18:03:24.752Z,5.30
2023-03-17T18:05:57.164Z,2.90
2023-03-17T18:08:26.553Z,3.20
2023-03-17T18:10:56.728Z,3.00
2023-03-17T18:13:25.890Z,4.00
2023-03-17T18:15:53.977Z,3.60
2023-03-17T18:18:22.348Z,2.90
2023-03-17T18:20:51.284Z,2.50
2023-03-17T18:23:20.371Z,3.00
2023-03-17T18:25:49.094Z,3.80
2023-03-17T18:28:17.376Z,5.70
2023-03-17T18:30:45.849Z,6.50
2023-03-17T18:33:18.281Z,6.40
2023-03-17T18:35:48.914Z,7.10
2023-03-17T18:38:17.189Z,8.20
2023-03-17T18:40:45.493Z,8.80
2023-03-17T18:43:13.807Z,9.40
2023-03-17T18:45:41.930Z,8.80
2023-03-17T18:48:10.114Z,8.20
2023-03-17T18:50:38.437Z,7.40
2023-03-17T18:53:07.049Z,8.50
2023-03-17T18:55:35.144Z,8.40
2023-03-17T18:58:04.668Z,8.20
2023-03-17T19:00:33.791Z,9.20
2023-03-17T19:03:02.065Z,8.80
2023-03-17T19:05:31.010Z,8.30
2023-03-17T19:07:59.133Z,9.00
2023-03-17T19:10:27.196Z,7.30
2023-03-17T19:12:55.501Z,6.60
2023-03-17T19:15:23.680Z,6.00
2023-03-17T19:17:51.995Z,6.30
2023-03-17T19:20:20.414Z,6.20
2023-03-17T19:22:48.680Z,6.10
2023-03-17T19:25:16.852Z,6.90
2023-03-17T19:27:45.476Z,6.40
2023-03-17T19:30:14.217Z,6.30
2023-03-17T19:32:42.308Z,6.50
2023-03-17T19:35:10.987Z,6.60
2023-03-17T19:37:39.205Z,6.20
2023-03-17T19:40:10.557Z,6.60
2023-03-17T19:42:38.737Z,7.30
2023-03-17T19:45:08.099Z,6.70
2023-03-17T19:47:36.345Z,7.20
2023-03-17T19:50:04.968Z,6.00
2023-03-17T19:52:33.251Z,5.90
2023-03-17T19:55:01.377Z,6.10
2023-03-17T19:57:29.495Z,5.80
2023-03-17T19:59:57.970Z,5.90
2023-03-17T20:02:26.297Z,6.30
2023-03-17T20:04:54.718Z,6.30
2023-03-17T20:07:22.900Z,5.50
2023-03-17T20:09:51.349Z,6.60
2023-03-17T20:12:19.669Z,6.70
2023-03-17T20:14:48.949Z,6.20
2023-03-17T20:17:17.465Z,6.10
2023-03-17T20:19:45.717Z,6.20
2023-03-17T20:22:13.867Z,6.20
2023-03-17T20:24:42.625Z,6.40
2023-03-17T20:27:11.484Z,6.50
2023-03-17T20:29:39.730Z,6.60
2023-03-17T20:32:07.827Z,6.60
2023-03-17T20:34:36.015Z,6.30
2023-03-17T20:37:04.966Z,6.20
2023-03-17T20:39:33.513Z,5.70
2023-03-17T20:42:02.452Z,5.90
2023-03-17T20:44:30.601Z,6.00
2023-03-17T20:46:59.269Z,5.70
2023-03-17T20:49:27.931Z,6.40
2023-03-17T20:51:56.325Z,6.10
2023-03-17T20:54:24.444Z,6.10
2023-03-17T20:56:53.885Z,5.70
2023-03-17T20:59:24.450Z,5.50
2023-03-17T21:01:52.677Z,5.30
2023-03-17T21:04:21.473Z,5.50
2023-03-17T21:06:50.006Z,5.60
2023-03-17T21:09:18.225Z,6.00
2023-03-17T21:11:46.626Z,5.10
2023-03-17T21:14:14.769Z,6.20
2023-03-17T21:16:44.988Z,6.00
2023-03-17T21:19:15.388Z,5.50
2023-03-17T21:21:44.727Z,6.40
2023-03-17T21:24:28.275Z,5.80
2023-03-17T21:26:56.431Z,5.70
2023-03-17T21:29:24.724Z,5.90
2023-03-17T21:31:53.321Z,5.70
2023-03-17T21:34:21.389Z,6.50
2023-03-17T21:36:49.483Z,6.20
2023-03-17T21:39:18.622Z,6.00
2023-03-17T21:41:49.381Z,6.20
2023-03-17T21:44:19.090Z,5.70
2023-03-17T21:46:48.655Z,6.50
2023-03-17T21:49:17.226Z,5.60
2023-03-17T21:51:46.761Z,6.10
2023-03-17T21:54:15.447Z,6.80
2023-03-17T21:56:44.966Z,7.00
2023-03-17T21:59:14.770Z,7.40
2023-03-17T22:01:43.890Z,6.80
2023-03-17T22:04:12.715Z,6.60
2023-03-17T22:06:40.784Z,7.10
2023-03-17T22:09:11.049Z,7.00
2023-03-17T22:11:39.166Z,6.90
2023-03-17T22:14:08.082Z,6.70
2023-03-17T22:16:36.272Z,6.30
2023-03-17T22:19:04.493Z,6.20
2023-03-17T22:21:32.522Z,6.00
2023-03-17T22:24:00.645Z,6.20
2023-03-17T22:26:29.450Z,5.80
2023-03-17T22:28:58.564Z,5.90
2023-03-17T22:31:28.786Z,5.90
2023-03-17T22:33:59.436Z,5.70
2023-03-17T22:36:28.378Z,5.80
2023-03-17T22:38:57.498Z,7.00
2023-03-17T22:41:27.824Z,6.20
2023-03-17T22:43:56.015Z,6.20
2023-03-17T22:46:24.642Z,6.40
2023-03-17T22:48:52.922Z,6.10
2023-03-17T22:51:23.565Z,5.70
2023-03-17T22:53:51.945Z,6.30
2023-03-17T22:56:20.467Z,6.30
2023-03-17T22:58:48.875Z,5.40
2023-03-17T23:01:17.856Z,5.70
2023-03-17T23:03:47.209Z,5.40
2023-03-17T23:06:15.572Z,7.00
2023-03-17T23:08:45.979Z,9.80
2023-03-17T23:11:21.370Z,9.10
2023-03-17T23:13:50.828Z,11.30
2023-03-17T23:16:20.452Z,9.70
2023-03-17T23:18:48.684Z,8.90
2023-03-17T23:21:33.036Z,8.30
2023-03-17T23:24:01.900Z,8.20
2023-03-17T23:26:30.437Z,8.80
2023-03-17T23:28:58.677Z,8.70
2023-03-17T23:31:27.548Z,8.70
2023-03-17T23:33:55.695Z,9.10
2023-03-17T23:36:24.025Z,8.80
2023-03-17T23:38:52.529Z,7.50
2023-03-17T23:41:20.938Z,6.80
2023-03-17T23:43:49.303Z,7.80
2023-03-17T23:46:18.569Z,8.50
2023-03-17T23:48:46.768Z,8.00
2023-03-17T23:51:15.360Z,8.50
2023-03-17T23:53:43.567Z,8.60
2023-03-17T23:56:13.146Z,8.70
2023-03-17T23:58:43.455Z,9.60
